Aviation Digital Data Service (ADDS)

Output produced by METARs form (2106 UTC 20 August 2019)
found at http://www.aviationweather.gov/metar/data/
 
METAR text: OMAL 202100Z 36006KT CAVOK 34/23 Q1005 BECMG 07006KT
Conditions at: OMAL (AL AIN INTNL ARP, AE) observed 2100 UTC 20 August 2019
Temperature: 34.0°C (93°F)
Dewpoint: 23.0°C (73°F) [RH = 53%]
Pressure (altimeter): 29.68 inches Hg (1005.0 mb)
Winds: from the N (360 degrees) at 7 MPH (6 knots; 3.1 m/s)
Visibility: 6 or more miles (10+ km)
Ceiling: ceiling and visibility are OK
Clouds: unknown
Weather: no significant weather observed at this time

METAR text: OMAL 202000Z 35006KT CAVOK 35/23 Q1005 BECMG 07006KT
Conditions at: OMAL (AL AIN INTNL ARP, AE) observed 2000 UTC 20 August 2019
Temperature: 35.0°C (95°F)
Dewpoint: 23.0°C (73°F) [RH = 50%]
Pressure (altimeter): 29.68 inches Hg (1005.0 mb)
Winds: from the N (350 degrees) at 7 MPH (6 knots; 3.1 m/s)
Visibility: 6 or more miles (10+ km)
Ceiling: ceiling and visibility are OK
Clouds: unknown
Weather: no significant weather observed at this time

METAR text: OMAL 201900Z 34007KT 8000 NSC 36/22 Q1005 BECMG 07006KT
Conditions at: OMAL (AL AIN INTNL ARP, AE) observed 1900 UTC 20 August 2019
Temperature: 36.0°C (97°F)
Dewpoint: 22.0°C (72°F) [RH = 45%]
Pressure (altimeter): 29.68 inches Hg (1005.0 mb)
Winds: from the NNW (340 degrees) at 8 MPH (7 knots; 3.6 m/s)
Visibility: 5 miles ( 8 km)
Ceiling: at least 12,000 feet AGL
Clouds: sky clear below 12,000 feet AGL
Weather: no significant weather observed at this time

METAR text: OMAL 201800Z 35007KT 8000 NSC 37/22 Q1006 BECMG 07006KT
Conditions at: OMAL (AL AIN INTNL ARP, AE) observed 1800 UTC 20 August 2019
Temperature: 37.0°C (99°F)
Dewpoint: 22.0°C (72°F) [RH = 42%]
Pressure (altimeter): 29.70 inches Hg (1006.0 mb)
Winds: from the N (350 degrees) at 8 MPH (7 knots; 3.6 m/s)
Visibility: 5 miles ( 8 km)
Ceiling: at least 12,000 feet AGL
Clouds: sky clear below 12,000 feet AGL
Weather: no significant weather observed at this time

METAR text: OMAL 201700Z 35010KT 8000 NSC 38/21 Q1005 NOSIG
Conditions at: OMAL (AL AIN INTNL ARP, AE) observed 1700 UTC 20 August 2019
Temperature: 38.0°C (100°F)
Dewpoint: 21.0°C (70°F) [RH = 38%]
Pressure (altimeter): 29.68 inches Hg (1005.0 mb)
Winds: from the N (350 degrees) at 12 MPH (10 knots; 5.1 m/s)
Visibility: 5 miles ( 8 km)
Ceiling: at least 12,000 feet AGL
Clouds: sky clear below 12,000 feet AGL
Weather: no significant weather observed at this time

METAR text: OMAL 201600Z 34013KT CAVOK 39/21 Q1005 NOSIG
Conditions at: OMAL (AL AIN INTNL ARP, AE) observed 1600 UTC 20 August 2019
Temperature: 39.0°C (102°F)
Dewpoint: 21.0°C (70°F) [RH = 36%]
Pressure (altimeter): 29.68 inches Hg (1005.0 mb)
Winds: from the NNW (340 degrees) at 15 MPH (13 knots; 6.7 m/s)
Visibility: 6 or more miles (10+ km)
Ceiling: ceiling and visibility are OK
Clouds: unknown
Weather: no significant weather observed at this time

METAR text: OMAL 201500Z 30008KT 9999 FEW048 41/13 Q1004 NOSIG
Conditions at: OMAL (AL AIN INTNL ARP, AE) observed 1500 UTC 20 August 2019
Temperature: 41.0°C (106°F)
Dewpoint: 13.0°C (55°F) [RH = 19%]
Pressure (altimeter): 29.65 inches Hg (1004.0 mb)
Winds: from the WNW (300 degrees) at 9 MPH (8 knots; 4.1 m/s)
Visibility: 6 or more miles (10+ km)
Ceiling: at least 12,000 feet AGL
Clouds: few clouds at 4800 feet AGL
Weather: no significant weather observed at this time

METAR text: OMAL 201400Z 30010KT 280V340 9999 FEW045 42/13 Q1004 NOSIG
Conditions at: OMAL (AL AIN INTNL ARP, AE) observed 1400 UTC 20 August 2019
Temperature: 42.0°C (108°F)
Dewpoint: 13.0°C (55°F) [RH = 18%]
Pressure (altimeter): 29.65 inches Hg (1004.0 mb)
Winds: from the WNW (300 degrees) at 12 MPH (10 knots; 5.1 m/s)
Visibility: 6 or more miles (10+ km)
Ceiling: at least 12,000 feet AGL
Clouds: few clouds at 4500 feet AGL
Weather: no significant weather observed at this time

METAR text: OMAL 201300Z 30009KT 270V330 9999 FEW045 42/13 Q1004 NOSIG
Conditions at: OMAL (AL AIN INTNL ARP, AE) observed 1300 UTC 20 August 2019
Temperature: 42.0°C (108°F)
Dewpoint: 13.0°C (55°F) [RH = 18%]
Pressure (altimeter): 29.65 inches Hg (1004.0 mb)
Winds: from the WNW (300 degrees) at 10 MPH (9 knots; 4.6 m/s)
Visibility: 6 or more miles (10+ km)
Ceiling: at least 12,000 feet AGL
Clouds: few clouds at 4500 feet AGL
Weather: no significant weather observed at this time

METAR text: OMAL 201200Z 27008KT 220V310 9999 FEW045 42/14 Q1004 NOSIG
Conditions at: OMAL (AL AIN INTNL ARP, AE) observed 1200 UTC 20 August 2019
Temperature: 42.0°C (108°F)
Dewpoint: 14.0°C (57°F) [RH = 20%]
Pressure (altimeter): 29.65 inches Hg (1004.0 mb)
Winds: from the W (270 degrees) at 9 MPH (8 knots; 4.1 m/s)
Visibility: 6 or more miles (10+ km)
Ceiling: at least 12,000 feet AGL
Clouds: few clouds at 4500 feet AGL
Weather: no significant weather observed at this time

METAR text: OMAL 201100Z 04004KT 340V090 9999 FEW045 41/14 Q1005 NOSIG
Conditions at: OMAL (AL AIN INTNL ARP, AE) observed 1100 UTC 20 August 2019
Temperature: 41.0°C (106°F)
Dewpoint: 14.0°C (57°F) [RH = 21%]
Pressure (altimeter): 29.68 inches Hg (1005.0 mb)
Winds: from the NE (40 degrees) at 5 MPH (4 knots; 2.1 m/s)
Visibility: 6 or more miles (10+ km)
Ceiling: at least 12,000 feet AGL
Clouds: few clouds at 4500 feet AGL
Weather: no significant weather observed at this time

METAR text: OMAL 201000Z VRB03KT 9999 FEW045 41/16 Q1006 BECMG 22010KT
Conditions at: OMAL (AL AIN INTNL ARP, AE) observed 1000 UTC 20 August 2019
Temperature: 41.0°C (106°F)
Dewpoint: 16.0°C (61°F) [RH = 23%]
Pressure (altimeter): 29.70 inches Hg (1006.0 mb)
Winds: variable direction winds at 3 MPH (3 knots; 1.5 m/s)
Visibility: 6 or more miles (10+ km)
Ceiling: at least 12,000 feet AGL
Clouds: few clouds at 4500 feet AGL
Weather: no significant weather observed at this time

METAR text: OMAL 200900Z 20006KT 100V270 CAVOK 39/17 Q1006 NOSIG
Conditions at: OMAL (AL AIN INTNL ARP, AE) observed 0900 UTC 20 August 2019
Temperature: 39.0°C (102°F)
Dewpoint: 17.0°C (63°F) [RH = 28%]
Pressure (altimeter): 29.70 inches Hg (1006.0 mb)
Winds: from the SSW (200 degrees) at 7 MPH (6 knots; 3.1 m/s)
Visibility: 6 or more miles (10+ km)
Ceiling: ceiling and visibility are OK
Clouds: unknown
Weather: no significant weather observed at this time

METAR text: OMAL 200800Z VRB07KT CAVOK 37/19 Q1007 BECMG 18008KT
Conditions at: OMAL (AL AIN INTNL ARP, AE) observed 0800 UTC 20 August 2019
Temperature: 37.0°C (99°F)
Dewpoint: 19.0°C (66°F) [RH = 35%]
Pressure (altimeter): 29.73 inches Hg (1007.0 mb)
Winds: variable direction winds at 8 MPH (7 knots; 3.6 m/s)
Visibility: 6 or more miles (10+ km)
Ceiling: ceiling and visibility are OK
Clouds: unknown
Weather: no significant weather observed at this time

METAR text: OMAL 200700Z 17009KT 130V200 CAVOK 35/20 Q1008 NOSIG
Conditions at: OMAL (AL AIN INTNL ARP, AE) observed 0700 UTC 20 August 2019
Temperature: 35.0°C (95°F)
Dewpoint: 20.0°C (68°F) [RH = 42%]
Pressure (altimeter): 29.76 inches Hg (1008.0 mb)
Winds: from the S (170 degrees) at 10 MPH (9 knots; 4.6 m/s)
Visibility: 6 or more miles (10+ km)
Ceiling: ceiling and visibility are OK
Clouds: unknown
Weather: no significant weather observed at this time

METAR text: OMAL 200600Z 17008KT CAVOK 33/21 Q1008 NOSIG
Conditions at: OMAL (AL AIN INTNL ARP, AE) observed 0600 UTC 20 August 2019
Temperature: 33.0°C (91°F)
Dewpoint: 21.0°C (70°F) [RH = 49%]
Pressure (altimeter): 29.76 inches Hg (1008.0 mb)
Winds: from the S (170 degrees) at 9 MPH (8 knots; 4.1 m/s)
Visibility: 6 or more miles (10+ km)
Ceiling: ceiling and visibility are OK
Clouds: unknown
Weather: no significant weather observed at this time

METAR text: OMAL 200500Z 17008KT 150V210 CAVOK 32/21 Q1008 NOSIG
Conditions at: OMAL (AL AIN INTNL ARP, AE) observed 0500 UTC 20 August 2019
Temperature: 32.0°C (90°F)
Dewpoint: 21.0°C (70°F) [RH = 52%]
Pressure (altimeter): 29.76 inches Hg (1008.0 mb)
Winds: from the S (170 degrees) at 9 MPH (8 knots; 4.1 m/s)
Visibility: 6 or more miles (10+ km)
Ceiling: ceiling and visibility are OK
Clouds: unknown
Weather: no significant weather observed at this time

METAR text: OMAL 200400Z 14005KT 100V180 CAVOK 31/20 Q1008 NOSIG
Conditions at: OMAL (AL AIN INTNL ARP, AE) observed 0400 UTC 20 August 2019
Temperature: 31.0°C (88°F)
Dewpoint: 20.0°C (68°F) [RH = 52%]
Pressure (altimeter): 29.76 inches Hg (1008.0 mb)
Winds: from the SE (140 degrees) at 6 MPH (5 knots; 2.6 m/s)
Visibility: 6 or more miles (10+ km)
Ceiling: ceiling and visibility are OK
Clouds: unknown
Weather: no significant weather observed at this time

METAR text: OMAL 200300Z 11006KT CAVOK 30/20 Q1007 BECMG 17010KT
Conditions at: OMAL (AL AIN INTNL ARP, AE) observed 0300 UTC 20 August 2019
Temperature: 30.0°C (86°F)
Dewpoint: 20.0°C (68°F) [RH = 55%]
Pressure (altimeter): 29.73 inches Hg (1007.0 mb)
Winds: from the ESE (110 degrees) at 7 MPH (6 knots; 3.1 m/s)
Visibility: 6 or more miles (10+ km)
Ceiling: ceiling and visibility are OK
Clouds: unknown
Weather: no significant weather observed at this time

METAR text: OMAL 200200Z 16010KT 8000 NSC 30/20 Q1006 NOSIG
Conditions at: OMAL (AL AIN INTNL ARP, AE) observed 0200 UTC 20 August 2019
Temperature: 30.0°C (86°F)
Dewpoint: 20.0°C (68°F) [RH = 55%]
Pressure (altimeter): 29.70 inches Hg (1006.0 mb)
Winds: from the SSE (160 degrees) at 12 MPH (10 knots; 5.1 m/s)
Visibility: 5 miles ( 8 km)
Ceiling: at least 12,000 feet AGL
Clouds: sky clear below 12,000 feet AGL
Weather: no significant weather observed at this time

METAR text: OMAL 200100Z 17010KT 8000 NSC 31/20 Q1005 NOSIG
Conditions at: OMAL (AL AIN INTNL ARP, AE) observed 0100 UTC 20 August 2019
Temperature: 31.0°C (88°F)
Dewpoint: 20.0°C (68°F) [RH = 52%]
Pressure (altimeter): 29.68 inches Hg (1005.0 mb)
Winds: from the S (170 degrees) at 12 MPH (10 knots; 5.1 m/s)
Visibility: 5 miles ( 8 km)
Ceiling: at least 12,000 feet AGL
Clouds: sky clear below 12,000 feet AGL
Weather: no significant weather observed at this time

METAR text: OMAL 200000Z 17013KT 7000 NSC 32/20 Q1005 NOSIG
Conditions at: OMAL (AL AIN INTNL ARP, AE) observed 0000 UTC 20 August 2019
Temperature: 32.0°C (90°F)
Dewpoint: 20.0°C (68°F) [RH = 49%]
Pressure (altimeter): 29.68 inches Hg (1005.0 mb)
Winds: from the S (170 degrees) at 15 MPH (13 knots; 6.7 m/s)
Visibility: 4 miles ( 7 km)
Ceiling: at least 12,000 feet AGL
Clouds: sky clear below 12,000 feet AGL
Weather: no significant weather observed at this time

METAR text: OMAL 192300Z 17016KT 6000 NSC 33/19 Q1004 NOSIG
Conditions at: OMAL (AL AIN INTNL ARP, AE) observed 2300 UTC 19 August 2019
Temperature: 33.0°C (91°F)
Dewpoint: 19.0°C (66°F) [RH = 44%]
Pressure (altimeter): 29.65 inches Hg (1004.0 mb)
Winds: from the S (170 degrees) at 18 MPH (16 knots; 8.2 m/s)
Visibility: 4 miles ( 6 km)
Ceiling: at least 12,000 feet AGL
Clouds: sky clear below 12,000 feet AGL
Weather: no significant weather observed at this time

METAR text: OMAL 192200Z 16013KT CAVOK 35/16 Q1005 NOSIG
Conditions at: OMAL (AL AIN INTNL ARP, AE) observed 2200 UTC 19 August 2019
Temperature: 35.0°C (95°F)
Dewpoint: 16.0°C (61°F) [RH = 32%]
Pressure (altimeter): 29.68 inches Hg (1005.0 mb)
Winds: from the SSE (160 degrees) at 15 MPH (13 knots; 6.7 m/s)
Visibility: 6 or more miles (10+ km)
Ceiling: ceiling and visibility are OK
Clouds: unknown
Weather: no significant weather observed at this time

METAR text: OMAL 192100Z 10006KT CAVOK 36/15 Q1004 NOSIG
Conditions at: OMAL (AL AIN INTNL ARP, AE) observed 2100 UTC 19 August 2019
Temperature: 36.0°C (97°F)
Dewpoint: 15.0°C (59°F) [RH = 29%]
Pressure (altimeter): 29.65 inches Hg (1004.0 mb)
Winds: from the E (100 degrees) at 7 MPH (6 knots; 3.1 m/s)
Visibility: 6 or more miles (10+ km)
Ceiling: ceiling and visibility are OK
Clouds: unknown
Weather: no significant weather observed at this time

METAR text: OMAL 192000Z 08006KT CAVOK 37/15 Q1004 NOSIG
Conditions at: OMAL (AL AIN INTNL ARP, AE) observed 2000 UTC 19 August 2019
Temperature: 37.0°C (99°F)
Dewpoint: 15.0°C (59°F) [RH = 27%]
Pressure (altimeter): 29.65 inches Hg (1004.0 mb)
Winds: from the E (80 degrees) at 7 MPH (6 knots; 3.1 m/s)
Visibility: 6 or more miles (10+ km)
Ceiling: ceiling and visibility are OK
Clouds: unknown
Weather: no significant weather observed at this time

METAR text: OMAL 191900Z 10005KT CAVOK 38/15 Q1005 NOSIG
Conditions at: OMAL (AL AIN INTNL ARP, AE) observed 1900 UTC 19 August 2019
Temperature: 38.0°C (100°F)
Dewpoint: 15.0°C (59°F) [RH = 26%]
Pressure (altimeter): 29.68 inches Hg (1005.0 mb)
Winds: from the E (100 degrees) at 6 MPH (5 knots; 2.6 m/s)
Visibility: 6 or more miles (10+ km)
Ceiling: ceiling and visibility are OK
Clouds: unknown
Weather: no significant weather observed at this time

METAR text: OMAL 191800Z 10008KT CAVOK 39/15 Q1005 NOSIG
Conditions at: OMAL (AL AIN INTNL ARP, AE) observed 1800 UTC 19 August 2019
Temperature: 39.0°C (102°F)
Dewpoint: 15.0°C (59°F) [RH = 24%]
Pressure (altimeter): 29.68 inches Hg (1005.0 mb)
Winds: from the E (100 degrees) at 9 MPH (8 knots; 4.1 m/s)
Visibility: 6 or more miles (10+ km)
Ceiling: ceiling and visibility are OK
Clouds: unknown
Weather: no significant weather observed at this time

METAR text: OMAL 191700Z 10005KT CAVOK 40/16 Q1004 NOSIG
Conditions at: OMAL (AL AIN INTNL ARP, AE) observed 1700 UTC 19 August 2019
Temperature: 40.0°C (104°F)
Dewpoint: 16.0°C (61°F) [RH = 25%]
Pressure (altimeter): 29.65 inches Hg (1004.0 mb)
Winds: from the E (100 degrees) at 6 MPH (5 knots; 2.6 m/s)
Visibility: 6 or more miles (10+ km)
Ceiling: ceiling and visibility are OK
Clouds: unknown
Weather: no significant weather observed at this time

METAR text: OMAL 191600Z 10006KT CAVOK 41/15 Q1004 NOSIG
Conditions at: OMAL (AL AIN INTNL ARP, AE) observed 1600 UTC 19 August 2019
Temperature: 41.0°C (106°F)
Dewpoint: 15.0°C (59°F) [RH = 22%]
Pressure (altimeter): 29.65 inches Hg (1004.0 mb)
Winds: from the E (100 degrees) at 7 MPH (6 knots; 3.1 m/s)
Visibility: 6 or more miles (10+ km)
Ceiling: ceiling and visibility are OK
Clouds: unknown
Weather: no significant weather observed at this time

METAR text: OMAL 191500Z 01008KT 340V040 8000 FEW045 42/15 Q1003 NOSIG
Conditions at: OMAL (AL AIN INTNL ARP, AE) observed 1500 UTC 19 August 2019
Temperature: 42.0°C (108°F)
Dewpoint: 15.0°C (59°F) [RH = 21%]
Pressure (altimeter): 29.62 inches Hg (1003.0 mb)
Winds: from the N (10 degrees) at 9 MPH (8 knots; 4.1 m/s)
Visibility: 5 miles ( 8 km)
Ceiling: at least 12,000 feet AGL
Clouds: few clouds at 4500 feet AGL
Weather: no significant weather observed at this time

METAR text: OMAL 191400Z 25006KT 170V330 8000 FEW040 SCT045 42/14 Q1003 BECMG 31008KT
Conditions at: OMAL (AL AIN INTNL ARP, AE) observed 1400 UTC 19 August 2019
Temperature: 42.0°C (108°F)
Dewpoint: 14.0°C (57°F) [RH = 20%]
Pressure (altimeter): 29.62 inches Hg (1003.0 mb)
Winds: from the WSW (250 degrees) at 7 MPH (6 knots; 3.1 m/s)
Visibility: 5 miles ( 8 km)
Ceiling: at least 12,000 feet AGL
Clouds: few clouds at 4000 feet AGL
scattered clouds at 4500 feet AGL
Weather: no significant weather observed at this time

METAR text: OMAL 191300Z 17006KT 130V220 8000 FEW045 43/14 Q1002 BECMG 30008KT
Conditions at: OMAL (AL AIN INTNL ARP, AE) observed 1300 UTC 19 August 2019
Temperature: 43.0°C (109°F)
Dewpoint: 14.0°C (57°F) [RH = 19%]
Pressure (altimeter): 29.59 inches Hg (1002.0 mb)
Winds: from the S (170 degrees) at 7 MPH (6 knots; 3.1 m/s)
Visibility: 5 miles ( 8 km)
Ceiling: at least 12,000 feet AGL
Clouds: few clouds at 4500 feet AGL
Weather: no significant weather observed at this time

METAR text: OMAL 191200Z VRB04KT 9000 NSC 43/13 Q1003 BECMG 30008KT
Conditions at: OMAL (AL AIN INTNL ARP, AE) observed 1200 UTC 19 August 2019
Temperature: 43.0°C (109°F)
Dewpoint: 13.0°C (55°F) [RH = 17%]
Pressure (altimeter): 29.62 inches Hg (1003.0 mb)
Winds: variable direction winds at 5 MPH (4 knots; 2.1 m/s)
Visibility: 6 miles ( 9 km)
Ceiling: at least 12,000 feet AGL
Clouds: sky clear below 12,000 feet AGL
Weather: no significant weather observed at this time

METAR text: OMAL 191100Z 13006KT 070V190 8000 NSC 42/15 Q1003 BECMG 30008KT
Conditions at: OMAL (AL AIN INTNL ARP, AE) observed 1100 UTC 19 August 2019
Temperature: 42.0°C (108°F)
Dewpoint: 15.0°C (59°F) [RH = 21%]
Pressure (altimeter): 29.62 inches Hg (1003.0 mb)
Winds: from the SE (130 degrees) at 7 MPH (6 knots; 3.1 m/s)
Visibility: 5 miles ( 8 km)
Ceiling: at least 12,000 feet AGL
Clouds: sky clear below 12,000 feet AGL
Weather: no significant weather observed at this time

METAR text: OMAL 191000Z 20009KT 160V270 8000 NSC 41/15 Q1004 NOSIG
Conditions at: OMAL (AL AIN INTNL ARP, AE) observed 1000 UTC 19 August 2019
Temperature: 41.0°C (106°F)
Dewpoint: 15.0°C (59°F) [RH = 22%]
Pressure (altimeter): 29.65 inches Hg (1004.0 mb)
Winds: from the SSW (200 degrees) at 10 MPH (9 knots; 4.6 m/s)
Visibility: 5 miles ( 8 km)
Ceiling: at least 12,000 feet AGL
Clouds: sky clear below 12,000 feet AGL
Weather: no significant weather observed at this time

Forecast for: OMAL (AL AIN INTNL ARP, AE)
Text: TAF OMAL 201700Z 2018/2200 06006KT 8000 NSC
Forecast period: 1800 to 2200 UTC 20 August 2019
Forecast type: FROM: standard forecast or significant change
Winds: from the ENE (60 degrees) at 7 MPH (6 knots; 3.1 m/s)
Visibility: 5 miles (8 km)
Ceiling: unknown
Clouds: missing
Weather: no significant weather forecast for this period
Text: BECMG 2022/2100 16015KT
Forecast period: 2200 UTC 20 August 2019 to 1000 UTC 21 August 2019
Forecast type: BECOMING: Conditions expected to become as follows by 0000 UTC 21 August 2019
Winds: from the SSE (160 degrees) at 17 MPH (15 knots; 7.7 m/s)
Visibility: 5 miles (8 km)
Ceiling: unknown
Clouds: missing
Weather: no significant weather forecast for this period
Text: PROB30
Forecast period: 0300 to 0600 UTC 21 August 2019
Forecast type: TEMPORARY: The following changes expected for less than half the time period
Visibility: 2.49 miles (4.01 km)
Ceiling: unknown
Clouds: missing
Weather: DU  (widespread dust)
Text: TEMPO 2103/2106 4000 DU
Forecast period: 1000 to 1400 UTC 21 August 2019
Forecast type: BECOMING: Conditions expected to become as follows by 1200 UTC 21 August 2019
Winds: from the W (260 degrees) at 12 MPH (10 knots; 5.1 m/s)
Visibility: 5 miles (8 km)
Ceiling: unknown
Clouds: missing
Weather: no significant weather forecast for this period
Text: BECMG 2110/2112 26010KT
Forecast period: 1400 to 2000 UTC 21 August 2019
Forecast type: BECOMING: Conditions expected to become as follows by 1600 UTC 21 August 2019
Winds: from the NNW (340 degrees) at 12 MPH (10 knots; 5.1 m/s)
Visibility: 5 miles (8 km)
Ceiling: unknown
Clouds: missing
Weather: no significant weather forecast for this period
Text: BECMG 2114/2116 34010KT
Forecast period: 2000 UTC 21 August 2019 to 0000 UTC 22 August 2019
Forecast type: BECOMING: Conditions expected to become as follows by 2200 UTC 21 August 2019
Winds: from the ENE (60 degrees) at 7 MPH (6 knots; 3.1 m/s)
Visibility: 5 miles (8 km)
Ceiling: unknown
Clouds: missing
Weather: no significant weather forecast for this period